createdAt,value
2019-01-25T00:00:11.582Z,30.17
2019-01-25T00:05:07.874Z,32.13
2019-01-25T00:10:07.102Z,30.63
2019-01-25T00:15:09.047Z,28.37
2019-01-25T00:20:07.690Z,31.53
2019-01-25T00:25:04.276Z,31.20
2019-01-25T00:30:00.224Z,26.73
2019-01-25T00:34:56.107Z,32.60
2019-01-25T00:39:51.993Z,25.40
2019-01-25T00:44:48.600Z,26.47
2019-01-25T00:49:44.845Z,28.77
2019-01-25T00:54:40.746Z,25.10
2019-01-25T00:59:36.632Z,11.27
2019-01-25T01:04:32.652Z,27.83
2019-01-25T01:09:28.549Z,30.50
2019-01-25T01:14:25.968Z,29.70
2019-01-25T01:19:22.016Z,30.53
2019-01-25T01:24:17.922Z,29.53
2019-01-25T01:29:13.837Z,30.20
2019-01-25T01:34:09.733Z,32.50
2019-01-25T01:39:06.035Z,32.97
2019-01-25T01:44:11.406Z,30.27
2019-01-25T01:49:07.309Z,32.97
2019-01-25T01:54:03.308Z,31.40
2019-01-25T01:58:59.200Z,31.37
2019-01-25T02:03:55.102Z,29.57
2019-01-25T02:08:50.998Z,30.80
2019-01-25T02:13:46.902Z,29.97
2019-01-25T02:18:42.795Z,30.20
2019-01-25T02:23:38.685Z,33.73
2019-01-25T02:28:34.577Z,32.60
2019-01-25T02:33:30.461Z,33.17
2019-01-25T02:38:26.355Z,31.80
2019-01-25T02:43:22.245Z,34.57
2019-01-25T02:48:18.114Z,33.10
2019-01-25T02:53:14.013Z,32.50
2019-01-25T02:58:09.909Z,32.40
2019-01-25T03:03:05.796Z,28.93
2019-01-25T03:08:01.913Z,31.70
2019-01-25T03:12:57.809Z,33.10
2019-01-25T03:17:53.808Z,30.47
2019-01-25T03:22:49.820Z,29.00
2019-01-25T03:27:45.804Z,29.63
2019-01-25T03:32:41.703Z,28.80
2019-01-25T03:37:37.607Z,33.13
2019-01-25T03:42:33.497Z,28.80
2019-01-25T03:47:29.397Z,30.47
2019-01-25T03:52:25.282Z,29.60
2019-01-25T03:57:21.199Z,28.30
2019-01-25T04:02:17.212Z,30.23
2019-01-25T04:07:13.234Z,29.57
2019-01-25T04:12:09.158Z,28.83
2019-01-25T04:17:05.253Z,26.27
2019-01-25T04:22:01.150Z,28.07
2019-01-25T04:26:57.144Z,29.30
2019-01-25T04:31:53.232Z,31.10
2019-01-25T04:36:49.330Z,27.97
2019-01-25T04:41:45.252Z,32.33
2019-01-25T04:46:41.147Z,27.80
2019-01-25T04:51:37.055Z,28.20
2019-01-25T04:56:36.008Z,28.77
2019-01-25T05:01:32.397Z,28.40
2019-01-25T05:06:28.298Z,29.50
2019-01-25T05:11:24.315Z,26.10
2019-01-25T05:16:20.236Z,25.60
2019-01-25T05:21:41.452Z,29.30
2019-01-25T05:26:37.376Z,28.63
2019-01-25T05:31:33.268Z,28.27
2019-01-25T05:36:29.165Z,30.10
2019-01-25T05:41:28.606Z,26.53
2019-01-25T05:46:22.867Z,30.20
2019-01-25T05:51:18.770Z,28.10
2019-01-25T05:56:14.668Z,29.63
2019-01-25T06:01:10.553Z,26.90
2019-01-25T06:06:06.927Z,26.97
2019-01-25T06:11:05.774Z,27.50
2019-01-25T06:16:01.921Z,26.67
2019-01-25T06:20:57.997Z,28.57
2019-01-25T06:25:55.794Z,29.70
2019-01-25T06:30:52.190Z,30.03
2019-01-25T06:35:48.089Z,27.07
2019-01-25T06:40:44.000Z,25.77
2019-01-25T06:45:39.995Z,27.50
2019-01-25T06:50:35.910Z,25.50
2019-01-25T06:55:31.803Z,27.87
2019-01-25T07:00:46.294Z,25.77
2019-01-25T07:05:42.192Z,27.70
2019-01-25T07:10:38.243Z,25.03
2019-01-25T07:15:34.145Z,23.27
2019-01-25T07:20:30.034Z,26.40
2019-01-25T07:25:26.173Z,24.27
2019-01-25T07:30:22.183Z,26.77
2019-01-25T07:35:18.091Z,26.27
2019-01-25T07:40:13.975Z,22.20
2019-01-25T07:45:11.475Z,28.30
2019-01-25T07:50:09.380Z,26.93
2019-01-25T07:55:09.550Z,26.30
2019-01-25T08:00:12.238Z,25.73
2019-01-25T08:05:11.014Z,19.33
2019-01-25T08:10:21.535Z,28.13
2019-01-25T08:15:19.854Z,22.40
2019-01-25T08:20:15.856Z,23.63
2019-01-25T08:25:11.961Z,33.20
2019-01-25T08:30:11.339Z,30.20
2019-01-25T08:35:08.934Z,27.37
2019-01-25T08:40:08.351Z,22.73
2019-01-25T08:45:08.149Z,21.43
2019-01-25T08:50:07.907Z,22.90
2019-01-25T08:55:04.132Z,22.00
2019-01-25T09:00:03.441Z,24.50
2019-01-25T09:04:59.343Z,24.67
2019-01-25T09:09:57.961Z,22.77
2019-01-25T09:14:54.660Z,23.30
2019-01-25T09:19:51.981Z,25.97
2019-01-25T09:24:49.371Z,23.07
2019-01-25T09:29:45.274Z,23.77
2019-01-25T09:34:42.023Z,24.37
2019-01-25T09:39:37.928Z,25.33
2019-01-25T09:44:39.573Z,22.70
2019-01-25T09:49:37.304Z,25.70
2019-01-25T09:54:34.436Z,28.73
2019-01-25T09:59:31.697Z,26.40
2019-01-25T10:04:28.448Z,22.23
2019-01-25T10:09:25.409Z,23.37
2019-01-25T10:14:23.741Z,27.60
2019-01-25T10:19:19.739Z,25.60
2019-01-25T10:24:15.636Z,28.50
2019-01-25T10:29:12.044Z,25.00
2019-01-25T10:34:08.143Z,26.83
2019-01-25T10:39:05.837Z,24.80
2019-01-25T10:44:05.460Z,24.70
2019-01-25T10:49:01.461Z,27.40
2019-01-25T10:53:57.387Z,28.10
2019-01-25T10:58:53.294Z,26.17
2019-01-25T11:03:49.185Z,26.30
2019-01-25T11:08:45.238Z,26.40
2019-01-25T11:13:41.138Z,23.50
2019-01-25T11:18:37.162Z,29.57
2019-01-25T11:23:33.073Z,23.63
2019-01-25T11:28:28.966Z,27.10
2019-01-25T11:33:24.862Z,25.97
2019-01-25T11:38:20.760Z,27.73
2019-01-25T11:43:16.655Z,26.07
2019-01-25T11:48:12.910Z,22.17
2019-01-25T11:53:08.829Z,25.03
2019-01-25T11:58:04.900Z,23.47
2019-01-25T12:03:00.802Z,24.77
2019-01-25T12:07:56.737Z,25.97
2019-01-25T12:12:52.759Z,28.53
2019-01-25T12:17:48.782Z,27.60
2019-01-25T12:22:44.669Z,27.77
2019-01-25T12:27:40.571Z,23.43
2019-01-25T12:32:36.503Z,21.90
2019-01-25T12:37:34.476Z,18.57
2019-01-25T12:42:30.623Z,21.50
2019-01-25T12:47:26.525Z,16.57
2019-01-25T12:52:22.429Z,17.13
2019-01-25T12:57:18.325Z,19.60
2019-01-25T13:02:14.218Z,7.20
2019-01-25T13:07:10.241Z,21.70
2019-01-25T13:12:06.172Z,15.30
2019-01-25T13:17:02.067Z,14.80
2019-01-25T13:21:58.019Z,18.63
2019-01-25T13:26:53.886Z,21.10
2019-01-25T13:31:49.883Z,24.07
2019-01-25T13:36:46.076Z,24.73
2019-01-25T13:41:42.178Z,25.23
2019-01-25T13:46:39.228Z,25.30
2019-01-25T13:51:35.327Z,26.00
2019-01-25T13:56:31.237Z,26.60
2019-01-25T14:01:34.366Z,27.17
2019-01-25T14:06:25.178Z,25.60
2019-01-25T14:11:21.905Z,24.50
2019-01-25T14:16:17.923Z,27.40
2019-01-25T14:21:13.839Z,24.93
2019-01-25T14:26:09.835Z,30.63
2019-01-25T14:31:05.750Z,27.40
2019-01-25T14:36:01.641Z,30.30
2019-01-25T14:40:57.532Z,27.77
2019-01-25T14:45:57.405Z,27.60
2019-01-25T14:50:53.375Z,26.37
2019-01-25T14:55:49.307Z,29.13
2019-01-25T15:00:45.201Z,31.17
2019-01-25T15:05:41.094Z,31.63
2019-01-25T15:10:37.025Z,29.50
2019-01-25T15:15:33.122Z,31.70
2019-01-25T15:20:29.026Z,31.30
2019-01-25T15:25:25.202Z,30.70
2019-01-25T15:30:27.019Z,35.80
2019-01-25T15:35:23.870Z,29.53
2019-01-25T15:40:20.797Z,30.33
2019-01-25T15:45:18.396Z,32.67
2019-01-25T15:50:20.306Z,31.13
2019-01-25T15:55:18.571Z,29.97
2019-01-25T16:00:41.627Z,29.43
2019-01-25T16:05:37.897Z,28.90
2019-01-25T16:10:33.960Z,31.90
2019-01-25T16:15:30.069Z,35.50
2019-01-25T16:20:26.094Z,30.73
2019-01-25T16:25:24.685Z,26.33
2019-01-25T16:30:25.832Z,28.80
2019-01-25T16:35:21.907Z,28.77
2019-01-25T16:40:20.514Z,30.27
2019-01-25T16:45:22.398Z,29.40
2019-01-25T16:50:23.645Z,31.97
2019-01-25T16:55:16.621Z,31.13
2019-01-25T17:00:28.667Z,28.67
2019-01-25T17:05:25.109Z,29.33
2019-01-25T17:10:21.278Z,29.07
2019-01-25T17:15:17.392Z,30.00
2019-01-25T17:20:21.453Z,30.10
2019-01-25T17:25:17.298Z,32.30
2019-01-25T17:30:31.272Z,29.00
2019-01-25T17:35:27.558Z,30.80
2019-01-25T17:40:32.728Z,33.10
2019-01-25T17:45:29.282Z,30.60
2019-01-25T17:50:25.305Z,30.07
2019-01-25T17:55:21.354Z,30.43
2019-01-25T18:00:27.652Z,30.47
2019-01-25T18:05:23.667Z,30.93
2019-01-25T18:10:21.954Z,30.03
2019-01-25T18:15:18.787Z,27.57
2019-01-25T18:20:16.570Z,31.87
2019-01-25T18:25:19.345Z,31.93
2019-01-25T18:30:31.155Z,29.30
2019-01-25T18:35:27.157Z,27.07
2019-01-25T18:40:23.086Z,30.40
2019-01-25T18:45:19.085Z,27.27
2019-01-25T18:50:15.203Z,25.30
2019-01-25T18:55:14.329Z,26.47
2019-01-25T19:00:13.733Z,24.77
2019-01-25T19:05:09.750Z,25.50
2019-01-25T19:10:20.604Z,25.83
2019-01-25T19:15:19.772Z,24.83
2019-01-25T19:20:16.101Z,25.80
2019-01-25T19:25:12.130Z,24.20
2019-01-25T19:30:20.577Z,20.37
2019-01-25T19:35:16.806Z,25.53
2019-01-25T19:40:18.835Z,26.67
2019-01-25T19:45:15.557Z,24.90
2019-01-25T19:50:14.997Z,24.23
2019-01-25T19:55:14.121Z,27.90
2019-01-25T20:00:19.054Z,24.13
2019-01-25T20:05:18.686Z,23.30
2019-01-25T20:10:15.441Z,26.03
2019-01-25T20:15:19.566Z,22.53
2019-01-25T20:20:17.819Z,24.30
2019-01-25T20:25:14.949Z,25.20
2019-01-25T20:30:14.975Z,22.97
2019-01-25T20:35:14.395Z,25.10
2019-01-25T20:40:13.092Z,20.83
2019-01-25T20:45:12.964Z,22.50
2019-01-25T20:50:12.276Z,22.10
2019-01-25T20:55:14.531Z,21.40
2019-01-25T21:00:14.164Z,21.80
2019-01-25T21:05:10.064Z,21.60
2019-01-25T21:10:09.403Z,23.53
2019-01-25T21:15:08.818Z,22.77
2019-01-25T21:20:11.027Z,21.07
2019-01-25T21:25:07.137Z,21.87
2019-01-25T21:30:09.819Z,19.87
2019-01-25T21:35:07.781Z,20.97
2019-01-25T21:40:08.609Z,19.10
2019-01-25T21:45:09.478Z,18.73
2019-01-25T21:50:09.090Z,18.73
2019-01-25T21:55:08.312Z,18.60
2019-01-25T22:00:14.023Z,19.63
2019-01-25T22:05:10.331Z,18.70
2019-01-25T22:10:18.029Z,20.27
2019-01-25T22:15:15.946Z,18.30
2019-01-25T22:20:17.452Z,23.60
2019-01-25T22:25:13.896Z,19.73
2019-01-25T22:30:16.011Z,20.73
2019-01-25T22:35:12.011Z,20.17
2019-01-25T22:40:17.135Z,19.60
2019-01-25T22:45:16.219Z,16.57
2019-01-25T22:50:20.449Z,17.90
2019-01-25T22:55:18.059Z,16.23
2019-01-25T23:00:22.542Z,16.97
2019-01-25T23:05:33.816Z,15.50
2019-01-25T23:10:29.789Z,14.37
2019-01-25T23:15:25.708Z,13.47
2019-01-25T23:20:21.725Z,17.50
2019-01-25T23:25:17.641Z,13.50
2019-01-25T23:30:14.122Z,14.00
2019-01-25T23:35:10.124Z,14.60
2019-01-25T23:40:07.554Z,12.50
2019-01-25T23:45:05.607Z,14.03
2019-01-25T23:50:02.690Z,13.30
2019-01-25T23:54:58.587Z,12.70
2019-01-25T23:59:54.510Z,14.30
